createdAt,value
2019-04-19T00:04:23.352Z,100626.33
2019-04-19T00:10:37.925Z,100634.66
2019-04-19T00:16:34.103Z,100631.09
2019-04-19T00:22:53.995Z,100637.85
2019-04-19T00:28:53.686Z,100639.28
2019-04-19T00:34:52.583Z,100635.06
2019-04-19T00:41:18.834Z,100638.83
2019-04-19T00:47:23.220Z,100631.20
2019-04-19T00:53:27.470Z,100640.45
2019-04-19T00:59:22.706Z,100645.77
2019-04-19T01:05:30.421Z,100644.92
2019-04-19T01:11:49.346Z,100647.13
2019-04-19T01:17:59.003Z,100650.02
2019-04-19T01:23:50.977Z,100650.39
2019-04-19T01:29:55.005Z,100659.61
2019-04-19T01:36:00.470Z,100661.66
2019-04-19T01:42:26.158Z,100668.84
2019-04-19T01:48:34.151Z,100670.23
2019-04-19T01:54:36.904Z,100671.56
2019-04-19T02:00:37.238Z,100677.05
2019-04-19T02:06:36.761Z,100672.92
2019-04-19T02:12:47.122Z,100679.31
2019-04-19T02:18:45.284Z,100677.03
2019-04-19T02:24:53.907Z,100676.70
2019-04-19T02:31:10.529Z,100684.86
2019-04-19T02:43:45.201Z,100685.33
2019-04-19T02:49:57.960Z,100684.69
2019-04-19T02:55:53.134Z,100693.77
2019-04-19T03:07:53.835Z,100695.27
2019-04-19T03:14:12.015Z,100695.44
2019-04-19T03:20:23.214Z,100701.45
2019-04-19T03:26:30.959Z,100703.39
2019-04-19T03:38:43.121Z,100712.88
2019-04-19T03:45:00.316Z,100715.05
2019-04-19T03:51:05.553Z,100727.72
2019-04-19T03:57:06.057Z,100729.50
2019-04-19T04:02:54.743Z,100742.64
2019-04-19T04:09:18.290Z,100733.99
2019-04-19T04:15:55.516Z,100736.17
2019-04-19T04:21:49.307Z,100743.02
2019-04-19T04:28:01.633Z,100747.41
2019-04-19T04:34:10.204Z,100748.80
2019-04-19T04:40:06.315Z,100752.86
2019-04-19T04:46:52.898Z,100763.89
2019-04-19T04:52:40.592Z,100767.06
2019-04-19T04:58:46.940Z,100768.51
2019-04-19T05:05:10.002Z,100773.14
2019-04-19T05:11:16.751Z,100781.31
2019-04-19T05:17:37.182Z,100788.28
2019-04-19T05:23:28.835Z,100792.19
2019-04-19T05:29:24.336Z,100801.38
2019-04-19T05:35:38.051Z,100804.35
2019-04-19T05:41:51.410Z,100804.40
2019-04-19T05:47:49.319Z,100805.06
2019-04-19T05:53:49.689Z,100797.80
2019-04-19T05:59:59.762Z,100804.87
2019-04-19T06:06:26.274Z,100799.31
2019-04-19T06:12:09.561Z,100800.17
2019-04-19T06:18:25.698Z,100799.12
2019-04-19T06:24:39.463Z,100805.91
2019-04-19T06:30:45.465Z,100814.18
2019-04-19T06:36:33.927Z,100818.38
2019-04-19T06:42:46.165Z,100825.60
2019-04-19T06:48:55.188Z,100824.20
2019-04-19T06:54:51.704Z,100829.77
2019-04-19T07:01:11.064Z,100825.28
2019-04-19T07:07:25.102Z,100832.84
2019-04-19T07:13:21.214Z,100834.41
2019-04-19T07:19:36.060Z,100839.45
2019-04-19T07:25:47.786Z,100845.67
2019-04-19T07:31:28.460Z,100842.99
2019-04-19T07:37:51.358Z,100851.91
2019-04-19T07:43:58.544Z,100850.65
2019-04-19T07:50:04.012Z,100858.13
2019-04-19T07:56:13.087Z,100854.69
2019-04-19T08:02:38.565Z,100863.56
2019-04-19T08:08:48.918Z,100863.51
2019-04-19T08:14:51.731Z,100867.45
2019-04-19T08:32:38.569Z,100861.67
2019-04-19T08:39:03.239Z,100862.98
2019-04-19T08:44:59.214Z,100862.31
2019-04-19T08:51:06.196Z,100858.40
2019-04-19T08:57:18.786Z,100856.78
2019-04-19T09:03:45.183Z,100855.61
2019-04-19T09:10:00.232Z,100844.52
2019-04-19T09:15:54.914Z,100850.16
2019-04-19T09:21:55.946Z,100838.32
2019-04-19T09:28:13.876Z,100842.41
2019-04-19T09:34:00.426Z,100832.92
2019-04-19T09:40:06.247Z,100828.26
2019-04-19T09:46:06.126Z,100820.22
2019-04-19T09:52:39.719Z,100822.23
2019-04-19T09:58:36.864Z,100811.25
2019-04-19T10:04:23.458Z,100807.30
2019-04-19T10:10:29.089Z,100804.45
2019-04-19T10:16:38.183Z,100806.09
2019-04-19T10:22:43.248Z,100789.23
2019-04-19T10:28:48.787Z,100777.58
2019-04-19T10:34:54.615Z,100785.73
2019-04-19T10:40:59.719Z,100786.92
2019-04-19T10:47:04.890Z,100787.57
2019-04-19T10:53:10.346Z,100775.36
2019-04-19T10:59:16.456Z,100777.27
2019-04-19T11:05:23.212Z,100769.78
2019-04-19T11:11:27.836Z,100767.72
2019-04-19T11:17:33.714Z,100766.89
2019-04-19T11:23:39.731Z,100758.25
2019-04-19T11:29:44.794Z,100763.88
2019-04-19T11:35:51.125Z,100756.66
2019-04-19T11:41:56.906Z,100744.44
2019-04-19T11:48:03.163Z,100741.14
2019-04-19T11:54:08.301Z,100739.06
2019-04-19T12:00:32.008Z,100745.75
2019-04-19T12:06:36.619Z,100742.31
2019-04-19T12:12:41.335Z,100743.48
2019-04-19T12:18:46.845Z,100741.87
2019-04-19T12:24:54.009Z,100751.60
2019-04-19T12:30:58.743Z,100732.73
2019-04-19T12:37:04.726Z,100740.89
2019-04-19T12:43:09.910Z,100738.37
2019-04-19T12:49:14.670Z,100740.40
2019-04-19T12:55:19.928Z,100734.68
2019-04-19T13:01:26.401Z,100736.54
2019-04-19T13:07:31.134Z,100722.70
2019-04-19T13:13:36.188Z,100709.05
2019-04-19T13:19:40.862Z,100703.92
2019-04-19T13:25:47.168Z,100697.05
2019-04-19T13:31:52.527Z,100697.91
2019-04-19T13:38:09.577Z,100707.12
2019-04-19T13:44:14.693Z,100700.11
2019-04-19T13:50:28.252Z,100696.48
2019-04-19T13:56:26.751Z,100695.64
2019-04-19T14:02:31.543Z,100686.93
2019-04-19T14:08:37.418Z,100688.19
2019-04-19T14:14:42.109Z,100680.36
2019-04-19T14:20:50.203Z,100673.70
2019-04-19T14:26:55.968Z,100680.47
2019-04-19T14:33:00.077Z,100687.87
2019-04-19T14:39:07.180Z,100672.95
2019-04-19T14:45:14.235Z,100668.20
2019-04-19T14:51:25.906Z,100655.52
2019-04-19T14:57:25.161Z,100661.41
2019-04-19T15:03:30.780Z,100668.03
2019-04-19T15:09:35.610Z,100660.73
2019-04-19T15:15:41.379Z,100657.24
2019-04-19T15:21:46.154Z,100642.55
2019-04-19T15:27:50.858Z,100654.92
2019-04-19T15:33:56.613Z,100643.42
2019-04-19T15:40:02.383Z,100646.56
2019-04-19T15:46:08.029Z,100638.17
2019-04-19T15:52:14.312Z,100642.85
2019-04-19T15:58:20.248Z,100637.50
2019-04-19T16:04:44.061Z,100641.52
2019-04-19T16:11:04.604Z,100648.11
2019-04-19T16:17:09.463Z,100643.45
2019-04-19T16:23:14.264Z,100638.98
2019-04-19T16:29:28.993Z,100644.45
2019-04-19T16:35:26.397Z,100646.63
2019-04-19T16:41:31.106Z,100647.17
2019-04-19T16:47:35.670Z,100651.24
2019-04-19T16:53:40.218Z,100652.12
2019-04-19T16:59:45.877Z,100654.11
2019-04-19T17:05:50.999Z,100647.66
2019-04-19T17:11:57.701Z,100655.71
2019-04-19T17:18:04.890Z,100650.80
2019-04-19T17:24:09.607Z,100643.16
2019-04-19T17:30:15.064Z,100652.83
2019-04-19T17:36:19.982Z,100653.14
2019-04-19T17:42:24.770Z,100652.66
2019-04-19T17:48:30.430Z,100651.92
2019-04-19T17:54:53.792Z,100659.97
2019-04-19T18:00:42.056Z,100668.95
2019-04-19T18:06:52.008Z,100665.08
2019-04-19T18:12:53.231Z,100669.84
2019-04-19T18:18:59.144Z,100686.77
2019-04-19T18:25:08.652Z,100686.11
2019-04-19T18:31:14.531Z,100699.18
2019-04-19T18:37:22.145Z,100706.06
2019-04-19T18:43:37.679Z,100710.37
2019-04-19T18:49:31.747Z,100714.23
2019-04-19T18:55:41.766Z,100722.52
2019-04-19T19:01:44.400Z,100728.93
2019-04-19T19:07:54.339Z,100724.10
2019-04-19T19:13:55.391Z,100724.20
2019-04-19T19:20:06.583Z,100729.77
2019-04-19T19:26:18.215Z,100737.63
2019-04-19T19:32:15.859Z,100744.55
2019-04-19T19:38:25.630Z,100746.83
2019-04-19T19:44:34.775Z,100749.94
2019-04-19T19:50:54.328Z,100748.69
2019-04-19T19:56:55.864Z,100755.56
2019-04-19T20:02:57.905Z,100756.47
2019-04-19T20:08:53.824Z,100755.56
2019-04-19T20:15:00.071Z,100756.36
2019-04-19T20:21:04.479Z,100760.91
2019-04-19T20:27:15.910Z,100757.09
2019-04-19T20:33:16.821Z,100761.90
2019-04-19T20:39:24.869Z,100759.80
2019-04-19T20:45:36.877Z,100757.33
2019-04-19T20:51:50.797Z,100756.53
2019-04-19T20:58:03.213Z,100759.83
2019-04-19T21:04:05.906Z,100758.41
2019-04-19T21:10:14.295Z,100760.52
2019-04-19T21:16:16.245Z,100771.71
2019-04-19T21:22:25.962Z,100768.50
2019-04-19T21:28:33.212Z,100772.55
2019-04-19T21:34:36.545Z,100773.41
2019-04-19T21:40:42.117Z,100771.18
2019-04-19T21:46:46.305Z,100776.33
2019-04-19T21:52:58.052Z,100776.23
2019-04-19T21:58:59.191Z,100782.30
2019-04-19T22:05:07.470Z,100784.55
2019-04-19T22:11:09.836Z,100778.70
2019-04-19T22:17:18.201Z,100780.07
2019-04-19T22:23:20.766Z,100786.14
2019-04-19T22:29:25.393Z,100789.93
2019-04-19T22:35:30.363Z,100791.66
2019-04-19T22:41:35.060Z,100787.42
2019-04-19T22:47:39.767Z,100786.75
2019-04-19T22:53:44.501Z,100792.55
2019-04-19T22:59:54.672Z,100795.58
2019-04-19T23:05:55.491Z,100787.74
2019-04-19T23:12:00.484Z,100785.56
2019-04-19T23:18:10.650Z,100779.23
2019-04-19T23:24:14.919Z,100778.70
2019-04-19T23:30:25.033Z,100780.23
2019-04-19T23:36:27.689Z,100779.08
2019-04-19T23:42:33.299Z,100781.59
2019-04-19T23:48:38.611Z,100786.31
2019-04-19T23:54:44.045Z,100783.28
